Flight Track Log - Related Links

Times and Time Zones

All times are in EDT time to prevent confusion due to time zone crossing. See the ASQ4252 flight status page for this flight to view local times or setup timezone preferences in your user account.

Time Position Orientation Groundspeed Altitude Reporting Facility
EDT Latitude Longitude Course Direction KTS MPH feet Rate Location/Type
Sat 10:15:31 PM 38.9167 -77.5333 185° South 203 234 2,700  Level Potomac TRACON
Sat 10:16:37 PM 38.8500 -77.5333 180° South 240 276 5,900 2,810 Climbing Potomac TRACON
Sat 10:17:00 PM 38.7061 -77.4970 201° Southwest  Level FlightAware Approximate
Sat 10:17:37 PM 38.7833 -77.5333 180° South 261 300 8,600  Level Potomac TRACON
Sat 10:18:00 PM 38.6285 -77.5095 191° South  Level FlightAware Approximate
Sat 10:18:37 PM 38.7000 -77.5333 180° South 268 308 10,000  Level Potomac TRACON
Sat 10:19:00 PM 38.5513 -77.5288 191° South  Level FlightAware Approximate
Sat 10:19:31 PM 38.6333 -77.5167 169° South 290 334 10,000  Level Potomac TRACON
Sat 10:20:00 PM 38.4731 -77.5400 185° South  Level FlightAware Approximate
Sat 10:20:31 PM 38.5500 -77.5000 171° South 297 342 10,000  Level Potomac TRACON
Sat 10:21:31 PM 38.4833 -77.4833 169° South 286 329 10,000  Level Potomac TRACON
Sat 10:22:25 PM 38.4167 -77.4833 180° South 280 322 10,000  Level Potomac TRACON
Sat 10:23:25 PM 38.3333 -77.4667 171° South 279 321 10,000  Level Potomac TRACON
Sat 10:24:25 PM 38.2500 -77.4500 171° South 277 319 10,000  Level Potomac TRACON
Sat 10:25:26 PM 38.1667 -77.4333 171° South 277 319 10,000  Level Potomac TRACON
Sat 10:26:31 PM 38.0833 -77.4000 163° South 286 329 10,000 -48 Level Potomac TRACON
Sat 10:27:32 PM 38.0000 -77.3833 171° South 287 330 9,900 -893 Descending Potomac TRACON
Sat 10:28:32 PM 37.9333 -77.3667 169° South 258 297 8,200 -1,750 Descending Potomac TRACON
Sat 10:29:32 PM 37.8667 -77.3500 169° South 247 284 6,400 -1,737 Descending Potomac TRACON
Sat 10:30:26 PM 37.8167 -77.3500 180° South 239 275 4,900 -1,737 Descending Potomac TRACON
Sat 10:31:26 PM 37.7500 -77.3333 169° South 239 275 3,100 -1,392 Descending Potomac TRACON
Sat 10:32:31 PM 37.6833 -77.3167 169° South 210 242 2,000 -528 Descending Potomac TRACON
Sat 10:33:31 PM 37.6333 -77.3000 165° South 170 196 2,000  Level Potomac TRACON

Login

Don't have an account? Register now (free) for customized features, flight alerts, and more!